Time;durP1;ratioP1;P1;durP2;ratioP2;P2;SDS_P1;SDS_P2;PMS_P1;PMS_P2;Temp;Humidity;BMP_temperature;BMP_pressure;BME280_temperature;BME280_humidity;BME280_pressure;Samples;Min_cycle;Max_cycle;Signal;HPM_P1;HPM_P2
2024/03/07 00:02:13;;;;;;;3.80;1.83;;;5.40;90.50;;;;;;5119020;28;20040;-71
2024/03/07 00:04:39;;;;;;;4.40;2.00;;;5.40;90.50;;;;;;5083243;28;20050;-72
2024/03/07 00:07:07;;;;;;;5.70;2.50;;;5.40;90.50;;;;;;5083641;28;20425;-72
2024/03/07 00:09:34;;;;;;;3.85;1.95;;;5.30;90.50;;;;;;5100105;28;20035;-72
2024/03/07 00:12:00;;;;;;;4.40;2.10;;;5.40;90.60;;;;;;5100286;28;20398;-72
2024/03/07 00:14:27;;;;;;;3.85;2.00;;;5.30;90.50;;;;;;5083153;28;20134;-73
2024/03/07 00:16:55;;;;;;;5.07;2.47;;;5.30;90.50;;;;;;5118199;28;20052;-72
2024/03/07 00:19:21;;;;;;;4.15;2.17;;;5.30;90.60;;;;;;5095841;28;20039;-72
2024/03/07 00:21:47;;;;;;;4.32;2.20;;;5.30;90.60;;;;;;5114910;28;20043;-71
2024/03/07 00:24:14;;;;;;;5.72;2.40;;;5.30;90.60;;;;;;5114991;28;20047;-72
2024/03/07 00:26:40;;;;;;;4.82;2.40;;;5.30;90.60;;;;;;5097273;28;20039;-72
2024/03/07 00:29:06;;;;;;;6.00;2.70;;;5.30;90.60;;;;;;5114912;28;20035;-71
2024/03/07 00:31:32;;;;;;;5.13;2.38;;;5.20;90.70;;;;;;5096356;28;20035;-72
2024/03/07 00:33:59;;;;;;;5.55;2.72;;;5.30;90.60;;;;;;5096825;28;20054;-73
2024/03/07 00:36:25;;;;;;;5.15;2.67;;;5.30;90.60;;;;;;5096973;28;20267;-72
2024/03/07 00:38:52;;;;;;;5.72;2.75;;;5.20;90.60;;;;;;5097003;28;20123;-72
2024/03/07 00:41:19;;;;;;;4.82;2.50;;;5.20;90.60;;;;;;5096341;28;20047;-72
2024/03/07 00:43:45;;;;;;;4.18;2.13;;;5.20;90.60;;;;;;5114391;28;20047;-72
2024/03/07 00:46:11;;;;;;;4.55;2.63;;;5.20;90.60;;;;;;5114452;28;20532;-72
2024/03/07 00:48:37;;;;;;;5.78;2.55;;;5.20;90.60;;;;;;5114897;28;20534;-72
2024/03/07 00:51:04;;;;;;;4.10;2.15;;;5.20;90.60;;;;;;5096000;28;20436;-72
2024/03/07 00:53:30;;;;;;;5.47;2.72;;;5.10;90.60;;;;;;5096892;28;20027;-72
2024/03/07 00:55:56;;;;;;;4.72;2.40;;;5.10;90.60;;;;;;5114418;28;20035;-72
2024/03/07 00:58:22;;;;;;;5.75;2.83;;;5.10;90.60;;;;;;5114674;28;20036;-72
2024/03/07 01:00:48;;;;;;;5.35;2.30;;;5.10;90.60;;;;;;5095860;28;20105;-72
2024/03/07 01:03:14;;;;;;;3.90;2.13;;;5.10;90.70;;;;;;5113838;28;20474;-72
2024/03/07 01:05:40;;;;;;;5.03;2.25;;;5.10;90.60;;;;;;5114130;28;20118;-72
2024/03/07 01:08:06;;;;;;;5.00;2.70;;;5.10;90.60;;;;;;5114370;28;20119;-72
2024/03/07 01:10:32;;;;;;;5.45;2.55;;;5.10;90.70;;;;;;5095547;28;20039;-73
2024/03/07 01:13:01;;;;;;;4.35;2.05;;;5.10;90.70;;;;;;5114460;28;20042;-72
2024/03/07 01:15:27;;;;;;;4.28;2.20;;;5.10;90.70;;;;;;5113838;28;20050;-72
2024/03/07 01:17:53;;;;;;;4.38;2.13;;;5.10;90.70;;;;;;5095393;28;20130;-72
2024/03/07 01:20:19;;;;;;;5.25;2.20;;;5.00;90.60;;;;;;5095379;28;20086;-72
2024/03/07 01:22:45;;;;;;;3.85;2.20;;;5.10;90.70;;;;;;5113878;28;20058;-72
2024/03/07 01:25:12;;;;;;;3.72;1.98;;;5.10;90.70;;;;;;5113741;28;20395;-72
2024/03/07 01:27:38;;;;;;;5.07;2.10;;;5.00;90.70;;;;;;5095298;28;20044;-72
2024/03/07 01:30:07;;;;;;;5.28;2.42;;;5.00;90.80;;;;;;5112219;28;20560;-72
2024/03/07 01:32:33;;;;;;;4.35;2.05;;;5.00;90.80;;;;;;5113462;28;20126;-72
2024/03/07 01:34:59;;;;;;;4.43;2.30;;;5.00;90.80;;;;;;5095221;28;20117;-72
2024/03/07 01:37:25;;;;;;;4.78;2.25;;;4.90;90.70;;;;;;5113567;28;20071;-72
2024/03/07 01:39:51;;;;;;;4.00;2.25;;;4.90;90.70;;;;;;5113641;28;20561;-72
2024/03/07 01:42:17;;;;;;;4.07;1.88;;;4.90;90.80;;;;;;5113343;28;20075;-72
2024/03/07 01:44:43;;;;;;;4.32;1.98;;;4.80;90.80;;;;;;5113467;28;20039;-72
2024/03/07 01:47:10;;;;;;;5.53;2.33;;;4.90;90.90;;;;;;5113191;28;20108;-72
2024/03/07 01:49:38;;;;;;;4.53;2.17;;;4.80;90.80;;;;;;5113902;28;20047;-72
2024/03/07 01:52:05;;;;;;;3.63;1.90;;;4.80;90.80;;;;;;5095286;28;20035;-72
2024/03/07 01:54:32;;;;;;;5.57;2.38;;;4.80;90.80;;;;;;5078705;28;20088;-72
2024/03/07 01:56:58;;;;;;;4.97;1.85;;;4.80;90.90;;;;;;5094875;28;20134;-71
2024/03/07 01:59:24;;;;;;;4.50;2.05;;;4.80;90.90;;;;;;5094765;28;20112;-73
2024/03/07 02:01:51;;;;;;;3.72;2.00;;;4.70;90.90;;;;;;5078692;28;20043;-72
2024/03/07 02:04:16;;;;;;;3.80;1.92;;;4.80;90.90;;;;;;5077738;28;20054;-72
2024/03/07 02:06:42;;;;;;;3.72;1.75;;;4.80;90.90;;;;;;5113455;28;20130;-72
2024/03/07 02:09:09;;;;;;;4.03;1.90;;;4.70;90.80;;;;;;5112861;28;20036;-72
2024/03/07 02:11:35;;;;;;;3.42;1.60;;;4.80;90.90;;;;;;5112941;28;20478;-71
2024/03/07 02:14:01;;;;;;;4.03;2.03;;;4.70;90.90;;;;;;5112935;28;20123;-72
2024/03/07 02:16:27;;;;;;;5.05;2.50;;;4.70;90.90;;;;;;5112657;28;20067;-72
2024/03/07 02:18:54;;;;;;;4.70;2.15;;;4.70;90.90;;;;;;5112825;28;20035;-72
2024/03/07 02:21:20;;;;;;;5.80;2.50;;;4.70;90.90;;;;;;5094540;28;20035;-72
2024/03/07 02:23:45;;;;;;;5.15;2.22;;;4.70;90.90;;;;;;5113069;28;20406;-72
2024/03/07 02:26:11;;;;;;;5.75;2.70;;;4.70;90.90;;;;;;5094603;28;20050;-71
2024/03/07 02:28:37;;;;;;;4.35;2.30;;;4.70;90.90;;;;;;5112746;28;20034;-72
2024/03/07 02:31:03;;;;;;;6.10;2.58;;;4.70;90.90;;;;;;5094295;28;20471;-72
2024/03/07 02:33:31;;;;;;;5.00;2.35;;;4.60;90.90;;;;;;5112501;28;20039;-72
2024/03/07 02:35:57;;;;;;;6.13;3.10;;;4.70;90.90;;;;;;5113024;28;20044;-72
2024/03/07 02:38:24;;;;;;;3.83;2.00;;;4.60;90.90;;;;;;5094098;28;20582;-72
2024/03/07 02:40:49;;;;;;;4.57;2.20;;;4.70;91.00;;;;;;5112232;28;20036;-72
2024/03/07 02:43:15;;;;;;;3.97;2.08;;;4.70;90.90;;;;;;5094160;28;20507;-72
2024/03/07 02:45:41;;;;;;;5.05;2.35;;;4.70;90.90;;;;;;5112797;28;20134;-72
2024/03/07 02:48:09;;;;;;;5.80;2.83;;;4.60;90.90;;;;;;5094072;28;20040;-72
2024/03/07 02:50:37;;;;;;;4.72;2.50;;;4.70;90.90;;;;;;5094749;28;20123;-72
2024/03/07 02:53:04;;;;;;;6.05;2.45;;;4.70;90.90;;;;;;5112813;28;20118;-72
2024/03/07 02:55:29;;;;;;;6.60;3.30;;;4.80;90.90;;;;;;5112767;28;20050;-72
2024/03/07 02:57:58;;;;;;;7.15;3.38;;;4.70;90.80;;;;;;5094496;28;20043;-72
2024/03/07 03:00:26;;;;;;;5.15;2.60;;;4.70;90.80;;;;;;5094862;28;20043;-72
2024/03/07 03:02:52;;;;;;;5.53;2.67;;;4.70;90.80;;;;;;5112209;28;20050;-72
2024/03/07 03:05:18;;;;;;;7.38;3.15;;;4.80;90.80;;;;;;5110300;28;20383;-71
2024/03/07 03:07:46;;;;;;;5.00;2.70;;;4.70;90.80;;;;;;5112075;28;20114;-72
2024/03/07 03:10:15;;;;;;;6.90;2.72;;;4.70;90.80;;;;;;5093686;28;20479;-72
2024/03/07 03:12:41;;;;;;;4.68;2.47;;;4.80;90.80;;;;;;5111994;28;20123;-72
2024/03/07 03:15:07;;;;;;;6.78;2.95;;;4.80;90.80;;;;;;5111916;28;20134;-72
2024/03/07 03:17:33;;;;;;;5.88;3.00;;;4.80;90.80;;;;;;5112030;28;20128;-72
2024/03/07 03:19:59;;;;;;;6.60;3.33;;;4.80;90.70;;;;;;5112082;28;20040;-72
2024/03/07 03:22:26;;;;;;;7.55;3.20;;;4.70;90.70;;;;;;5093820;28;20403;-72
2024/03/07 03:24:55;;;;;;;5.30;2.55;;;4.70;90.80;;;;;;5111847;28;20054;-72
2024/03/07 03:27:22;;;;;;;7.43;3.05;;;4.70;90.80;;;;;;5111901;28;20039;-72
2024/03/07 03:29:50;;;;;;;7.35;3.13;;;4.70;90.80;;;;;;5093974;28;20039;-73
2024/03/07 03:32:16;;;;;;;5.00;2.60;;;4.70;90.80;;;;;;5111901;28;20044;-72
2024/03/07 03:34:42;;;;;;;6.20;3.20;;;4.70;90.80;;;;;;5111655;28;20449;-72
2024/03/07 03:37:09;;;;;;;5.28;2.60;;;4.60;90.80;;;;;;5111743;28;20048;-72
2024/03/07 03:39:35;;;;;;;6.05;2.83;;;4.60;90.90;;;;;;5093777;28;20074;-73
2024/03/07 03:42:00;;;;;;;6.22;2.88;;;4.70;90.90;;;;;;5094009;28;20063;-72
2024/03/07 03:44:26;;;;;;;6.18;2.95;;;4.60;90.90;;;;;;5093282;28;20410;-72
2024/03/07 03:46:52;;;;;;;5.68;2.85;;;4.60;90.90;;;;;;5112167;28;20435;-72
2024/03/07 03:49:17;;;;;;;6.10;3.00;;;4.60;90.90;;;;;;5093615;28;20040;-72
2024/03/07 03:51:43;;;;;;;6.95;3.25;;;4.60;90.90;;;;;;5111504;28;20040;-72
2024/03/07 03:54:08;;;;;;;6.03;3.13;;;4.60;90.90;;;;;;5114035;28;20035;-72
2024/03/07 03:56:34;;;;;;;5.80;3.10;;;4.60;91.20;;;;;;5115403;28;20040;-72
2024/03/07 03:59:00;;;;;;;7.13;3.30;;;4.60;90.90;;;;;;5115408;28;20043;-72
2024/03/07 04:01:26;;;;;;;4.75;2.63;;;4.50;90.90;;;;;;5115217;28;20375;-72
2024/03/07 04:03:51;;;;;;;4.97;2.40;;;4.50;90.90;;;;;;5115366;28;20047;-72
2024/03/07 04:06:19;;;;;;;6.03;2.50;;;4.60;91.00;;;;;;5115116;28;20107;-72
2024/03/07 04:08:44;;;;;;;6.90;2.72;;;4.50;91.20;;;;;;5115051;28;20053;-72
2024/03/07 04:11:10;;;;;;;4.47;2.30;;;4.50;91.00;;;;;;5115052;28;20351;-72
2024/03/07 04:13:36;;;;;;;5.82;2.83;;;4.50;91.00;;;;;;5115173;28;20089;-72
2024/03/07 04:16:02;;;;;;;7.57;3.03;;;4.50;91.00;;;;;;5115125;28;20078;-72
2024/03/07 04:18:28;;;;;;;7.50;3.17;;;4.50;91.00;;;;;;5096115;28;20372;-72
2024/03/07 04:20:54;;;;;;;5.30;2.65;;;4.40;91.00;;;;;;5114578;28;20043;-72
2024/03/07 04:23:20;;;;;;;4.55;2.20;;;4.40;91.00;;;;;;5096271;28;20406;-72
2024/03/07 04:25:46;;;;;;;4.55;2.25;;;4.50;91.00;;;;;;5062823;28;20044;-72
2024/03/07 04:28:11;;;;;;;5.20;2.53;;;4.40;91.00;;;;;;5115197;28;20126;-72
2024/03/07 04:30:37;;;;;;;5.15;2.63;;;4.40;91.00;;;;;;5114539;28;20065;-72
2024/03/07 04:33:04;;;;;;;4.60;2.22;;;4.40;91.00;;;;;;5079576;28;20062;-72
2024/03/07 04:35:31;;;;;;;6.03;2.92;;;4.40;91.00;;;;;;5096577;28;20176;-72
2024/03/07 04:37:57;;;;;;;5.50;2.70;;;4.40;91.00;;;;;;5079738;28;20447;-72
2024/03/07 04:40:23;;;;;;;4.72;2.45;;;4.30;91.00;;;;;;5114874;28;20055;-72
2024/03/07 04:42:49;;;;;;;5.40;2.72;;;4.40;91.10;;;;;;5096235;28;20122;-72
2024/03/07 04:45:15;;;;;;;6.18;3.08;;;4.40;91.10;;;;;;5095930;28;20082;-72
2024/03/07 04:47:42;;;;;;;6.45;3.03;;;4.30;91.10;;;;;;5096358;28;20118;-72
2024/03/07 04:50:10;;;;;;;4.50;2.45;;;4.30;91.10;;;;;;5079032;28;20451;-72
2024/03/07 04:52:37;;;;;;;4.55;2.22;;;4.30;91.10;;;;;;5096291;28;20348;-73
2024/03/07 04:55:08;;;;;;;6.72;2.97;;;4.30;91.10;;;;;;5114700;28;20043;-72
2024/03/07 04:57:35;;;;;;;5.38;2.70;;;4.30;91.10;;;;;;5079095;28;20047;-72
2024/03/07 05:00:01;;;;;;;6.32;2.88;;;4.30;91.20;;;;;;5114235;28;20031;-72
2024/03/07 05:02:27;;;;;;;4.65;2.45;;;4.10;91.10;;;;;;5114397;28;20379;-72
2024/03/07 05:04:52;;;;;;;6.60;2.90;;;4.20;91.10;;;;;;5113865;28;20087;-72
2024/03/07 05:07:18;;;;;;;4.75;2.45;;;4.20;91.20;;;;;;5114358;28;20035;-72
2024/03/07 05:09:45;;;;;;;5.63;2.67;;;4.20;91.10;;;;;;5095937;28;20039;-72
2024/03/07 05:12:10;;;;;;;4.78;2.60;;;4.20;91.10;;;;;;5096696;28;20046;-72
2024/03/07 05:14:36;;;;;;;6.80;2.58;;;4.20;91.20;;;;;;5096369;28;20035;-72
2024/03/07 05:17:05;;;;;;;3.92;2.30;;;4.20;91.20;;;;;;5114197;28;20059;-72
2024/03/07 05:19:32;;;;;;;4.25;2.25;;;4.20;91.20;;;;;;5095749;28;20047;-72
2024/03/07 05:21:58;;;;;;;6.28;3.03;;;4.10;91.20;;;;;;5095793;28;20047;-72
2024/03/07 05:24:23;;;;;;;5.35;2.95;;;4.10;91.20;;;;;;5095703;28;20047;-72
2024/03/07 05:26:49;;;;;;;7.20;3.28;;;4.10;91.20;;;;;;5095795;28;20048;-72
2024/03/07 05:29:17;;;;;;;5.13;2.55;;;4.20;91.20;;;;;;5113646;28;20046;-72
2024/03/07 05:31:46;;;;;;;6.53;2.92;;;4.10;91.20;;;;;;5114218;28;20035;-72
2024/03/07 05:34:13;;;;;;;5.93;3.17;;;4.10;91.20;;;;;;5079736;28;20055;-72
2024/03/07 05:36:46;;;;;;;6.65;3.20;;;4.10;91.20;;;;;;5113934;28;20040;-72
2024/03/07 05:39:14;;;;;;;5.07;2.55;;;4.10;91.20;;;;;;5113530;28;20047;-72
2024/03/07 05:41:41;;;;;;;7.35;3.35;;;4.10;91.20;;;;;;5114133;28;20035;-72
2024/03/07 05:44:10;;;;;;;6.45;3.33;;;4.00;91.20;;;;;;5095296;28;20098;-72
2024/03/07 05:46:41;;;;;;;7.00;3.13;;;4.00;91.20;;;;;;5113678;28;20042;-72
2024/03/07 05:49:07;;;;;;;6.47;3.28;;;4.10;91.20;;;;;;5095580;28;20393;-72
2024/03/07 05:51:33;;;;;;;5.95;2.72;;;4.00;91.20;;;;;;5114066;28;20043;-72
2024/03/07 05:53:59;;;;;;;5.63;2.53;;;4.00;91.20;;;;;;5095354;28;20402;-72
2024/03/07 05:56:25;;;;;;;5.25;2.65;;;4.00;91.20;;;;;;5095151;28;20122;-72
2024/03/07 05:58:51;;;;;;;5.53;2.65;;;4.00;91.20;;;;;;5114090;28;20116;-72
2024/03/07 06:01:18;;;;;;;4.32;2.08;;;4.00;91.20;;;;;;5113700;28;20035;-72
2024/03/07 06:03:45;;;;;;;7.28;2.92;;;4.00;91.20;;;;;;5113337;28;20093;-73
2024/03/07 06:06:12;;;;;;;4.72;2.40;;;4.00;91.20;;;;;;5113598;28;20513;-72
2024/03/07 06:08:42;;;;;;;5.45;2.78;;;4.00;91.20;;;;;;5113172;28;20039;-72
2024/03/07 06:11:08;;;;;;;6.40;3.22;;;4.00;91.20;;;;;;5113241;28;20035;-72
2024/03/07 06:13:34;;;;;;;5.85;2.83;;;4.00;91.20;;;;;;5094831;28;20075;-73
2024/03/07 06:16:04;;;;;;;6.38;3.25;;;3.90;91.20;;;;;;5094073;28;20074;-72
2024/03/07 06:18:31;;;;;;;5.65;2.55;;;3.90;91.20;;;;;;5094723;28;20043;-72
2024/03/07 06:20:57;;;;;;;5.47;2.80;;;3.90;91.20;;;;;;5094603;28;20040;-73
2024/03/07 06:23:24;;;;;;;5.68;2.53;;;3.90;91.20;;;;;;5113515;28;20118;-76
2024/03/07 06:25:51;;;;;;;6.47;3.10;;;3.90;91.20;;;;;;5113549;28;20075;-75
2024/03/07 06:28:17;;;;;;;7.82;3.65;;;3.80;91.20;;;;;;5094581;28;20040;-75
2024/03/07 06:30:45;;;;;;;5.38;2.88;;;3.80;91.20;;;;;;5112984;28;20039;-76
2024/03/07 06:33:12;;;;;;;5.13;2.78;;;3.90;91.20;;;;;;5077665;28;20047;-76
2024/03/07 06:35:39;;;;;;;5.38;2.70;;;3.90;91.20;;;;;;5077780;28;20509;-75
2024/03/07 06:38:06;;;;;;;5.28;2.88;;;3.90;91.20;;;;;;5113459;28;20032;-75
2024/03/07 06:40:32;;;;;;;5.97;3.00;;;3.90;91.20;;;;;;5112719;28;20050;-74
2024/03/07 06:42:59;;;;;;;7.15;3.00;;;3.90;91.20;;;;;;5112934;28;20036;-75
2024/03/07 06:45:25;;;;;;;6.43;3.03;;;3.90;91.10;;;;;;5112566;28;20040;-75
2024/03/07 06:47:52;;;;;;;5.30;2.58;;;3.90;91.10;;;;;;5094459;28;20084;-74
2024/03/07 06:50:19;;;;;;;4.30;2.20;;;3.90;91.10;;;;;;5112956;28;20093;-75
2024/03/07 06:52:47;;;;;;;7.35;3.28;;;3.90;91.10;;;;;;5094621;28;20108;-75
2024/03/07 06:55:16;;;;;;;4.90;2.33;;;3.90;91.00;;;;;;5094882;28;20043;-75
2024/03/07 06:57:43;;;;;;;5.82;2.65;;;4.00;91.10;;;;;;5094808;28;20036;-75
2024/03/07 07:00:11;;;;;;;5.13;2.55;;;4.00;91.00;;;;;;5113054;28;20044;-75
2024/03/07 07:02:38;;;;;;;4.65;2.55;;;4.00;91.00;;;;;;5095216;28;20085;-75
2024/03/07 07:05:10;;;;;;;5.38;2.28;;;4.00;91.00;;;;;;5094166;28;20115;-75
2024/03/07 07:07:38;;;;;;;5.20;2.70;;;4.10;91.00;;;;;;5062141;28;20433;-74
2024/03/07 07:10:07;;;;;;;4.90;2.58;;;4.10;91.30;;;;;;5094275;28;20042;-75
2024/03/07 07:12:33;;;;;;;6.07;2.90;;;4.10;91.00;;;;;;5094819;28;20127;-75
2024/03/07 07:14:59;;;;;;;5.85;2.58;;;4.10;90.90;;;;;;5077172;28;20494;-75
2024/03/07 07:17:28;;;;;;;6.22;3.13;;;4.10;90.90;;;;;;5077181;28;20068;-74
2024/03/07 07:19:55;;;;;;;5.28;2.72;;;4.20;90.90;;;;;;5112699;28;20046;-75
2024/03/07 07:22:21;;;;;;;5.50;2.42;;;4.20;90.80;;;;;;5112645;28;20043;-75
2024/03/07 07:24:47;;;;;;;5.63;2.75;;;4.30;90.80;;;;;;5076960;28;20100;-75
2024/03/07 07:27:13;;;;;;;5.70;3.03;;;4.30;90.80;;;;;;5095200;28;20053;-75
2024/03/07 07:29:39;;;;;;;6.63;3.00;;;4.30;90.80;;;;;;5116035;28;20032;-75
2024/03/07 07:32:05;;;;;;;5.78;2.63;;;4.40;90.70;;;;;;5115928;28;20498;-75
2024/03/07 07:34:31;;;;;;;6.60;3.20;;;4.40;90.70;;;;;;5080461;28;20123;-75
2024/03/07 07:36:56;;;;;;;6.22;3.00;;;4.40;90.60;;;;;;5116406;28;20070;-75
2024/03/07 07:39:22;;;;;;;6.70;3.00;;;4.40;90.60;;;;;;5080507;28;20054;-75
2024/03/07 07:41:48;;;;;;;6.35;2.95;;;4.50;90.70;;;;;;5097893;28;20127;-75
2024/03/07 07:44:15;;;;;;;6.90;3.05;;;4.50;90.60;;;;;;5080314;28;20065;-75
2024/03/07 07:46:41;;;;;;;7.82;3.78;;;4.50;90.60;;;;;;5097046;28;20460;-76
2024/03/07 07:49:06;;;;;;;5.43;2.88;;;4.60;90.50;;;;;;5115411;28;20035;-75
2024/03/07 07:51:32;;;;;;;6.13;3.13;;;4.60;90.50;;;;;;5097112;28;20039;-75
2024/03/07 07:53:59;;;;;;;6.40;3.08;;;4.70;90.40;;;;;;5115880;28;20040;-76
2024/03/07 07:56:28;;;;;;;5.15;2.97;;;4.80;90.40;;;;;;5096900;28;20486;-75
2024/03/07 07:58:54;;;;;;;5.22;2.83;;;4.80;90.40;;;;;;5081019;28;20047;-75
2024/03/07 08:01:19;;;;;;;5.60;3.03;;;4.90;90.30;;;;;;5115494;28;20551;-75
2024/03/07 08:03:45;;;;;;;5.22;2.53;;;4.90;90.30;;;;;;5097575;28;20508;-75
2024/03/07 08:06:11;;;;;;;6.13;3.33;;;5.00;90.20;;;;;;5115473;28;20455;-75
2024/03/07 08:08:37;;;;;;;7.22;3.40;;;5.10;90.20;;;;;;5097453;28;20035;-75
2024/03/07 08:11:03;;;;;;;5.85;2.70;;;5.20;90.10;;;;;;5097078;28;20044;-75
2024/03/07 08:13:28;;;;;;;5.60;3.13;;;5.30;90.10;;;;;;5115120;28;20064;-75
2024/03/07 08:15:54;;;;;;;6.18;3.42;;;5.30;90.00;;;;;;5115239;28;20126;-75
2024/03/07 08:18:20;;;;;;;6.82;3.50;;;5.30;90.00;;;;;;5097388;28;20035;-75
2024/03/07 08:20:46;;;;;;;5.13;2.90;;;5.50;89.90;;;;;;5115700;28;20036;-75
2024/03/07 08:23:12;;;;;;;5.68;3.03;;;5.60;89.80;;;;;;5063086;28;20127;-75
2024/03/07 08:25:42;;;;;;;5.82;2.83;;;5.70;89.80;;;;;;5096764;28;20044;-76
2024/03/07 08:28:08;;;;;;;5.63;3.03;;;5.80;89.60;;;;;;5080642;28;20400;-75
2024/03/07 08:30:34;;;;;;;5.18;2.95;;;5.90;89.40;;;;;;5114907;28;20092;-75
2024/03/07 08:33:03;;;;;;;5.60;2.90;;;6.00;89.20;;;;;;5115332;28;20425;-74
2024/03/07 08:35:29;;;;;;;6.28;3.15;;;6.00;89.10;;;;;;5114966;28;20063;-75
2024/03/07 08:37:55;;;;;;;6.07;3.03;;;6.10;89.00;;;;;;5115281;28;20067;-75
2024/03/07 08:40:25;;;;;;;5.93;2.75;;;6.10;88.90;;;;;;5114021;28;20039;-75
2024/03/07 08:42:54;;;;;;;5.72;2.80;;;6.20;88.90;;;;;;5113080;28;20046;-75
2024/03/07 08:45:20;;;;;;;5.78;3.10;;;6.40;88.90;;;;;;5079998;28;20048;-75
2024/03/07 08:47:48;;;;;;;4.60;2.63;;;6.30;88.70;;;;;;5115089;28;20043;-75
2024/03/07 08:50:16;;;;;;;4.47;2.60;;;6.40;88.60;;;;;;5114416;28;20032;-75
2024/03/07 08:52:44;;;;;;;4.90;2.65;;;6.50;88.70;;;;;;5096526;28;20499;-75
2024/03/07 08:55:12;;;;;;;5.65;2.85;;;6.60;88.60;;;;;;5096405;28;20044;-75
2024/03/07 08:57:38;;;;;;;8.15;3.72;;;6.80;88.50;;;;;;5079404;28;20031;-74
2024/03/07 09:00:09;;;;;;;6.47;3.28;;;6.60;88.10;;;;;;5096688;28;20050;-75
2024/03/07 09:02:35;;;;;;;5.25;3.10;;;6.70;88.20;;;;;;5114641;28;20039;-75
2024/03/07 09:05:03;;;;;;;5.68;3.20;;;6.70;88.30;;;;;;5114443;28;20479;-75
2024/03/07 09:07:29;;;;;;;5.90;2.80;;;6.80;88.30;;;;;;5095974;28;20043;-75
2024/03/07 09:09:55;;;;;;;5.07;2.70;;;6.80;88.10;;;;;;5079159;28;20036;-75
2024/03/07 09:12:21;;;;;;;5.80;3.20;;;6.80;88.20;;;;;;5095853;28;20108;-75
2024/03/07 09:14:47;;;;;;;6.00;3.20;;;6.90;88.10;;;;;;5079077;28;20483;-75
2024/03/07 09:17:13;;;;;;;5.68;3.30;;;7.00;88.10;;;;;;5079114;28;20051;-75
2024/03/07 09:19:39;;;;;;;4.57;2.55;;;7.00;87.90;;;;;;5096112;28;20050;-75
2024/03/07 09:22:07;;;;;;;4.88;2.72;;;7.00;87.70;;;;;;5095982;28;20482;-75
2024/03/07 09:24:34;;;;;;;4.38;2.53;;;7.20;87.70;;;;;;5079275;28;20451;-75
2024/03/07 09:27:00;;;;;;;3.67;2.40;;;7.20;87.70;;;;;;5114319;28;20039;-75
2024/03/07 09:29:27;;;;;;;5.40;2.75;;;7.30;87.70;;;;;;5078829;28;20036;-75
2024/03/07 09:31:53;;;;;;;3.80;2.47;;;7.40;87.50;;;;;;5095884;28;20036;-75
2024/03/07 09:34:21;;;;;;;4.22;2.28;;;7.50;87.40;;;;;;5078689;28;20454;-75
2024/03/07 09:36:47;;;;;;;3.80;2.00;;;7.60;87.20;;;;;;5113897;28;20039;-75
2024/03/07 09:39:12;;;;;;;4.68;2.50;;;7.60;87.10;;;;;;5095643;28;20104;-75
2024/03/07 09:41:39;;;;;;;6.22;3.33;;;7.60;87.00;;;;;;5113770;28;20043;-75
2024/03/07 09:44:05;;;;;;;5.65;2.80;;;7.70;87.20;;;;;;5114086;28;20066;-75
2024/03/07 09:46:32;;;;;;;4.53;2.45;;;7.70;87.00;;;;;;5078708;28;20483;-75
2024/03/07 09:49:00;;;;;;;5.25;2.72;;;7.70;86.90;;;;;;5114051;28;20047;-75
2024/03/07 09:51:27;;;;;;;6.68;3.00;;;7.70;86.90;;;;;;5112336;28;20040;-75
2024/03/07 09:53:57;;;;;;;4.88;2.60;;;7.70;87.10;;;;;;5078402;28;20548;-75
2024/03/07 09:56:24;;;;;;;4.32;2.42;;;7.80;87.00;;;;;;5096031;28;20051;-75
2024/03/07 09:58:52;;;;;;;4.22;2.35;;;7.80;86.90;;;;;;5113210;28;20487;-75
2024/03/07 10:01:20;;;;;;;3.38;2.00;;;7.80;86.90;;;;;;5095375;28;20054;-75
2024/03/07 10:03:48;;;;;;;4.25;2.38;;;7.90;86.90;;;;;;5061779;28;20071;-75
2024/03/07 10:06:14;;;;;;;4.15;2.33;;;7.90;86.70;;;;;;5113227;28;20093;-75
2024/03/07 10:08:43;;;;;;;4.93;2.67;;;8.00;86.70;;;;;;5095664;28;20118;-75
2024/03/07 10:11:09;;;;;;;4.18;2.38;;;8.00;86.50;;;;;;5113573;28;20039;-75
2024/03/07 10:13:35;;;;;;;5.55;2.60;;;8.10;86.60;;;;;;5113754;28;20127;-75
2024/03/07 10:16:01;;;;;;;5.03;2.90;;;8.00;86.40;;;;;;5113084;28;20063;-74
2024/03/07 10:18:27;;;;;;;4.32;2.35;;;8.00;86.30;;;;;;5095148;28;20065;-75
2024/03/07 10:20:55;;;;;;;4.90;2.67;;;8.10;86.20;;;;;;5094881;28;20146;-75
2024/03/07 10:23:21;;;;;;;4.03;2.17;;;8.10;86.10;;;;;;5113551;28;20031;-74
2024/03/07 10:25:47;;;;;;;4.80;2.80;;;8.20;86.00;;;;;;5113404;28;20478;-74
2024/03/07 10:28:14;;;;;;;4.25;2.50;;;8.20;86.00;;;;;;5094679;28;20051;-74
2024/03/07 10:30:41;;;;;;;4.10;2.50;;;8.20;85.80;;;;;;5078267;28;20052;-74
2024/03/07 10:33:07;;;;;;;5.22;2.65;;;8.30;85.70;;;;;;5113080;28;20487;-74
2024/03/07 10:35:33;;;;;;;4.05;2.10;;;8.40;85.70;;;;;;5077999;28;20054;-74
2024/03/07 10:38:06;;;;;;;4.63;2.67;;;8.40;85.60;;;;;;5095251;28;20031;-74
2024/03/07 10:40:33;;;;;;;4.63;2.45;;;8.40;85.50;;;;;;5080161;28;20101;-74
2024/03/07 10:43:02;;;;;;;4.55;2.55;;;8.40;85.50;;;;;;5094857;28;20048;-75
2024/03/07 10:45:30;;;;;;;4.07;2.20;;;8.40;85.50;;;;;;5095331;28;20079;-75
2024/03/07 10:47:57;;;;;;;4.50;2.55;;;8.50;85.50;;;;;;5112941;28;20043;-75
2024/03/07 10:50:42;;;;;;;5.95;2.88;;;8.50;85.10;;;;;;5078307;28;20471;-74
2024/03/07 10:53:30;;;;;;;5.53;2.70;;;8.50;85.00;;;;;;5076564;28;20027;-74
2024/03/07 10:56:21;;;;;;;4.25;2.35;;;8.50;84.90;;;;;;5112580;28;20050;-74
2024/03/07 10:59:01;;;;;;;5.20;2.92;;;8.50;85.20;;;;;;5094463;28;20043;-74
2024/03/07 11:01:31;;;;;;;4.78;2.63;;;8.50;84.90;;;;;;5092800;28;20040;-74
2024/03/07 11:03:58;;;;;;;5.50;2.80;;;8.50;84.90;;;;;;5077973;28;20039;-74
2024/03/07 11:06:25;;;;;;;4.85;2.58;;;8.50;85.10;;;;;;5112381;28;20502;-74
2024/03/07 11:08:53;;;;;;;4.70;2.70;;;8.70;85.00;;;;;;5124815;28;20039;-74
2024/03/07 11:11:18;;;;;;;4.57;2.65;;;8.70;84.60;;;;;;5133392;28;20055;-75
2024/03/07 11:13:46;;;;;;;3.70;2.10;;;8.70;84.60;;;;;;5114566;28;20047;-74
2024/03/07 11:16:14;;;;;;;5.18;2.42;;;8.80;84.60;;;;;;5080723;28;20042;-75
2024/03/07 11:18:40;;;;;;;5.45;2.75;;;8.80;84.40;;;;;;5111720;28;20039;-74
2024/03/07 11:21:07;;;;;;;4.72;2.67;;;8.90;84.40;;;;;;5112155;28;20046;-75
2024/03/07 11:23:38;;;;;;;4.90;2.65;;;9.00;84.20;;;;;;5110944;28;20035;-75
2024/03/07 11:26:09;;;;;;;5.43;2.90;;;8.90;84.20;;;;;;5112391;28;20430;-75
2024/03/07 11:28:37;;;;;;;5.25;2.83;;;8.90;84.10;;;;;;5111002;28;20050;-75
2024/03/07 11:31:25;;;;;;;6.32;3.03;;;9.00;83.90;;;;;;5112276;28;20463;-75
2024/03/07 11:34:18;;;;;;;4.88;2.75;;;9.00;83.70;;;;;;5098395;28;20054;-75
2024/03/07 11:36:49;;;;;;;4.80;2.72;;;9.10;83.70;;;;;;5133156;28;20043;-75
2024/03/07 11:39:47;;;;;;;4.35;2.47;;;9.00;83.60;;;;;;5114692;28;20478;-75
2024/03/07 11:42:27;;;;;;;4.20;2.40;;;9.10;83.70;;;;;;5114062;28;20043;-75
2024/03/07 11:44:56;;;;;;;5.32;2.63;;;9.20;83.60;;;;;;5132902;28;20042;-75
2024/03/07 11:47:24;;;;;;;5.30;2.72;;;9.10;83.40;;;;;;5132641;28;20035;-75
2024/03/07 11:49:52;;;;;;;5.43;2.70;;;9.20;83.50;;;;;;5114016;28;20130;-75
2024/03/07 11:52:18;;;;;;;5.45;2.60;;;9.30;83.40;;;;;;5093899;28;20426;-75
2024/03/07 11:54:47;;;;;;;4.70;2.60;;;9.40;83.20;;;;;;5111689;28;20463;-76
2024/03/07 11:57:16;;;;;;;5.30;2.67;;;9.50;83.00;;;;;;5111952;28;20122;-74
2024/03/07 11:59:45;;;;;;;5.28;2.83;;;9.60;82.80;;;;;;5110504;28;20135;-75
2024/03/07 12:02:13;;;;;;;4.78;2.65;;;9.60;82.50;;;;;;5110518;28;20079;-75
2024/03/07 12:04:40;;;;;;;4.32;2.70;;;9.70;82.40;;;;;;5096752;28;20070;-75
2024/03/07 12:07:06;;;;;;;4.32;2.30;;;9.70;82.10;;;;;;5114036;28;20043;-75
2024/03/07 12:09:35;;;;;;;4.95;2.60;;;9.70;82.20;;;;;;5114618;28;20054;-75
2024/03/07 12:12:03;;;;;;;5.07;2.90;;;9.80;82.10;;;;;;5132193;28;20161;-76
2024/03/07 12:14:29;;;;;;;4.68;2.55;;;9.90;82.10;;;;;;5112366;28;20122;-75
2024/03/07 12:16:56;;;;;;;5.28;3.08;;;9.90;81.70;;;;;;5113498;28;20544;-75
2024/03/07 12:19:23;;;;;;;4.03;2.50;;;9.80;81.70;;;;;;5114920;28;20146;-74
2024/03/07 12:21:48;;;;;;;5.70;2.88;;;9.60;82.00;;;;;;5114855;28;20050;-75
2024/03/07 12:24:15;;;;;;;4.03;2.35;;;9.50;82.30;;;;;;5136024;28;20039;-74
2024/03/07 12:26:42;;;;;;;5.18;2.10;;;9.40;82.70;;;;;;5117298;28;20035;-74
2024/03/07 12:29:11;;;;;;;4.65;2.65;;;9.40;82.80;;;;;;5117084;28;20408;-75
2024/03/07 12:31:39;;;;;;;4.18;2.30;;;9.50;82.90;;;;;;5117173;28;20043;-74
2024/03/07 12:34:09;;;;;;;4.55;2.60;;;9.40;82.80;;;;;;5135770;28;20043;-75
2024/03/07 12:36:45;;;;;;;3.53;2.15;;;9.50;83.00;;;;;;5117291;28;20052;-74
2024/03/07 12:39:25;;;;;;;4.85;2.55;;;9.50;82.90;;;;;;5135377;28;20064;-75
2024/03/07 12:41:55;;;;;;;4.82;2.55;;;9.80;82.50;;;;;;5112224;28;20048;-75
2024/03/07 12:44:21;;;;;;;4.10;2.65;;;9.90;82.20;;;;;;5113254;28;20040;-75
2024/03/07 12:46:48;;;;;;;5.68;2.83;;;9.90;82.50;;;;;;5113507;28;20069;-75
2024/03/07 12:49:15;;;;;;;4.55;2.42;;;9.90;81.80;;;;;;5113179;28;20039;-75
2024/03/07 12:51:42;;;;;;;4.68;2.67;;;10.00;81.70;;;;;;5114578;28;20088;-74
2024/03/07 12:54:09;;;;;;;4.10;2.47;;;10.00;81.70;;;;;;5114823;28;20031;-75
2024/03/07 12:56:37;;;;;;;5.82;2.75;;;10.00;81.80;;;;;;5099928;28;20557;-75
2024/03/07 12:59:03;;;;;;;4.10;2.45;;;10.00;81.70;;;;;;5135520;28;20047;-75